Time;durP1;ratioP1;P1;durP2;ratioP2;P2;SDS_P1;SDS_P2;PMS_P1;PMS_P2;Temp;Humidity;BMP_temperature;BMP_pressure;BME280_temperature;BME280_humidity;BME280_pressure;Samples;Min_cycle;Max_cycle;Signal;HPM_P1;HPM_P2
2022/10/15 00:00:39;;;;;;;19.73;10.75;;;;;;;8.24;89.02;94887.61;1646199;86;21011;-51
2022/10/15 00:03:08;;;;;;;19.05;10.93;;;;;;;8.25;88.96;94882.30;1654135;86;21503;-51
2022/10/15 00:05:39;;;;;;;19.73;14.80;;;;;;;8.28;89.00;94896.52;1654120;86;21026;-52
2022/10/15 00:08:06;;;;;;;15.75;10.23;;;;;;;8.33;88.96;94883.69;1654158;86;21010;-51
2022/10/15 00:10:33;;;;;;;16.07;10.03;;;;;;;8.36;89.20;94888.30;1654062;86;21102;-52
2022/10/15 00:13:00;;;;;;;16.57;9.95;;;;;;;8.39;89.53;94887.44;1654118;85;21499;-51
2022/10/15 00:15:27;;;;;;;19.55;10.80;;;;;;;8.46;89.76;94884.52;1646155;86;21267;-51
2022/10/15 00:17:53;;;;;;;12.55;8.78;;;;;;;8.53;89.76;94878.87;1654099;86;21109;-53
2022/10/15 00:20:21;;;;;;;11.93;9.03;;;;;;;8.60;89.40;94872.44;1654363;86;20980;-51
2022/10/15 00:22:48;;;;;;;17.15;9.03;;;;;;;8.67;89.27;94870.28;1654127;86;20983;-51
2022/10/15 00:25:14;;;;;;;14.35;10.50;;;;;;;8.69;89.05;94867.88;1654190;86;21085;-52
2022/10/15 00:27:41;;;;;;;16.77;10.28;;;;;;;8.71;89.28;94864.69;1654106;86;21094;-52
2022/10/15 00:30:10;;;;;;;11.80;9.58;;;;;;;8.73;88.76;94863.06;1653971;86;21026;-52
2022/10/15 00:32:37;;;;;;;23.18;10.32;;;;;;;8.66;88.15;94862.48;1654325;86;21027;-52
2022/10/15 00:35:06;;;;;;;14.75;9.48;;;;;;;8.54;88.23;94860.43;1654148;86;21054;-52
2022/10/15 00:37:34;;;;;;;19.32;10.10;;;;;;;8.48;88.29;94862.95;1654169;86;21510;-54
2022/10/15 00:40:01;;;;;;;12.50;10.58;;;;;;;8.43;88.36;94860.70;1654145;86;21107;-52
2022/10/15 00:42:28;;;;;;;14.33;10.48;;;;;;;8.40;88.62;94869.80;1662917;84;20986;-55
2022/10/15 00:44:57;;;;;;;16.23;9.53;;;;;;;8.39;88.60;94866.88;1689372;85;21486;-52
2022/10/15 00:47:36;;;;;;;13.75;9.68;;;;;;;8.35;88.48;94863.47;1689389;84;21109;-53
2022/10/15 00:50:13;;;;;;;10.95;8.93;;;;;;;8.30;88.50;94870.84;1689845;84;21069;-54
2022/10/15 00:53:03;;;;;;;14.50;9.83;;;;;;;8.29;88.55;94876.12;1689307;84;21174;-51
2022/10/15 00:55:36;;;;;;;13.93;9.85;;;;;;;8.24;88.45;94868.43;1689531;85;21108;-52
2022/10/15 00:58:12;;;;;;;15.00;9.70;;;;;;;8.19;88.39;94877.76;1689698;85;21022;-51
2022/10/15 01:00:40;;;;;;;13.08;9.48;;;;;;;8.12;88.37;94869.10;1689398;85;20966;-51
2022/10/15 01:03:07;;;;;;;13.48;9.40;;;;;;;8.09;88.32;94871.30;1689264;84;21082;-52
2022/10/15 01:05:35;;;;;;;13.93;9.50;;;;;;;8.08;88.29;94869.77;1689351;84;21250;-52
2022/10/15 01:08:03;;;;;;;12.50;9.30;;;;;;;8.07;88.38;94873.70;1689282;84;21557;-52
2022/10/15 01:10:45;;;;;;;11.63;8.78;;;;;;;8.09;88.70;94865.07;1689385;85;20982;-51
2022/10/15 01:13:23;;;;;;;;;;;;;;;8.09;88.73;94864.45;1691881;84;21070;-52
2022/10/15 01:16:01;;;;;;;14.83;10.10;;;;;;;8.04;88.79;94871.83;1689405;84;20179;-51
2022/10/15 01:18:43;;;;;;;14.18;8.90;;;;;;;7.97;88.98;94869.84;1689265;84;21159;-52
2022/10/15 01:21:27;;;;;;;;;;;;;;;7.95;88.75;94873.62;1691875;85;21014;-50
2022/10/15 01:24:25;;;;;;;17.60;9.98;;;;;;;7.86;88.69;94865.99;1689499;84;20156;-52
2022/10/15 01:27:15;;;;;;;15.70;11.28;;;;;;;7.80;89.01;94863.59;1689361;84;20986;-51
2022/10/15 01:30:01;;;;;;;19.67;10.53;;;;;;;7.76;89.36;94859.39;1689369;84;21064;-52
2022/10/15 01:32:33;;;;;;;19.10;9.80;;;;;;;7.79;89.80;94867.53;1689588;84;21221;-52
2022/10/15 01:35:30;;;;;;;14.75;8.70;;;;;;;7.83;89.89;94869.59;1689461;84;20962;-51
2022/10/15 01:38:21;;;;;;;15.63;8.38;;;;;;;7.87;89.75;94873.63;1689574;85;21014;-52
2022/10/15 01:41:13;;;;;;;12.10;8.73;;;;;;;7.91;89.71;94870.95;1689340;84;21515;-52
2022/10/15 01:43:52;;;;;;;12.47;8.83;;;;;;;7.92;89.65;94871.13;1667411;84;20964;-52
2022/10/15 01:46:44;;;;;;;14.85;8.05;;;;;;;7.93;89.65;94872.69;1653030;85;21195;-51
2022/10/15 01:49:14;;;;;;;12.68;8.73;;;;;;;7.94;89.52;94863.27;1654895;84;21105;-52
2022/10/15 01:51:43;;;;;;;16.50;8.10;;;;;;;7.90;89.36;94871.39;1654229;86;21094;-51
2022/10/15 01:54:15;;;;;;;14.18;8.83;;;;;;;7.85;89.13;94869.92;1654143;86;20994;-51
2022/10/15 01:56:48;;;;;;;13.10;10.03;;;;;;;7.79;89.25;94871.64;1654022;86;20979;-53
2022/10/15 01:59:12;;;;;;;17.35;10.53;;;;;;;7.76;89.46;94869.77;1654093;85;20967;-51
2022/10/15 02:01:43;;;;;;;11.48;9.33;;;;;;;7.75;89.64;94870.95;1653936;86;21452;-51
2022/10/15 02:04:22;;;;;;;11.15;8.73;;;;;;;7.75;89.60;94863.33;1654119;86;21491;-52
2022/10/15 02:07:24;;;;;;;20.97;10.95;;;;;;;7.70;89.24;94882.39;1654051;85;21444;-50
2022/10/15 02:10:00;;;;;;;20.72;11.05;;;;;;;7.66;89.08;94880.95;1653803;85;20959;-51
2022/10/15 02:12:53;;;;;;;20.30;10.40;;;;;;;7.60;88.76;94877.16;1654291;86;21257;-51
2022/10/15 02:15:37;;;;;;;24.15;10.68;;;;;;;7.51;88.86;94872.25;1654545;86;21472;-51
2022/10/15 02:18:16;;;;;;;21.95;12.10;;;;;;;7.49;88.94;94870.55;1654163;86;21010;-51
2022/10/15 02:20:58;;;;;;;19.17;10.75;;;;;;;7.43;88.83;94868.73;1654281;86;21034;-51
2022/10/15 02:23:33;;;;;;;17.77;10.10;;;;;;;7.39;89.06;94872.14;1654386;85;21006;-51
2022/10/15 02:26:01;;;;;;;23.18;10.28;;;;;;;7.44;89.34;94869.69;1622086;86;21476;-51
2022/10/15 02:28:29;;;;;;;14.20;10.00;;;;;;;7.50;88.92;94870.72;1624723;86;20983;-53
2022/10/15 02:30:57;;;;;;;21.85;10.03;;;;;;;7.49;88.50;94867.05;1654199;86;20995;-52
2022/10/15 02:33:24;;;;;;;21.55;10.75;;;;;;;7.43;88.43;94869.52;1646511;86;21034;-52
2022/10/15 02:35:51;;;;;;;18.00;10.80;;;;;;;7.38;88.58;94871.36;1654246;86;20986;-52
2022/10/15 02:38:20;;;;;;;24.98;10.08;;;;;;;7.36;88.43;94872.37;1654134;86;22199;-51
2022/10/15 02:40:47;;;;;;;14.75;8.90;;;;;;;7.29;88.34;94865.70;1654326;86;21130;-52
2022/10/15 02:43:17;;;;;;;13.70;9.05;;;;;;;7.26;88.33;94872.02;1654788;84;21081;-52
2022/10/15 02:45:44;;;;;;;18.55;9.95;;;;;;;7.18;88.32;94863.77;1687128;84;21053;-52
2022/10/15 02:48:11;;;;;;;13.38;10.45;;;;;;;7.13;88.32;94876.58;1691866;83;20966;-52
2022/10/15 02:50:38;;;;;;;15.98;9.68;;;;;;;7.06;88.14;94877.93;1692133;84;21908;-53
2022/10/15 02:53:05;;;;;;;16.15;9.33;;;;;;;6.98;88.19;94871.05;1691949;84;21522;-51
2022/10/15 02:55:33;;;;;;;16.90;9.08;;;;;;;6.89;88.15;94873.58;1691846;84;21061;-52
2022/10/15 02:58:00;;;;;;;14.25;9.15;;;;;;;6.84;88.26;94874.05;1691757;84;21018;-52
2022/10/15 03:00:27;;;;;;;14.30;9.90;;;;;;;6.80;88.29;94877.45;1691864;84;21013;-51
2022/10/15 03:02:55;;;;;;;14.10;9.55;;;;;;;6.71;88.52;94878.61;1691989;84;21158;-52
2022/10/15 03:05:23;;;;;;;11.70;7.75;;;;;;;6.71;89.04;94873.90;1691799;84;21394;-52
2022/10/15 03:07:50;;;;;;;12.20;9.08;;;;;;;6.78;89.23;94879.83;1711061;83;20954;-51
2022/10/15 03:10:19;;;;;;;11.05;8.43;;;;;;;6.78;88.80;94877.09;1710587;83;21481;-51
2022/10/15 03:12:47;;;;;;;14.83;9.13;;;;;;;6.81;88.71;94877.63;1664936;84;21445;-51
2022/10/15 03:15:15;;;;;;;17.35;11.25;;;;;;;6.85;88.67;94875.61;1691885;84;21262;-51
2022/10/15 03:17:42;;;;;;;14.30;9.28;;;;;;;6.84;88.48;94869.94;1691850;84;20981;-52
2022/10/15 03:20:10;;;;;;;15.85;8.80;;;;;;;6.82;88.31;94875.84;1691834;84;21018;-51
2022/10/15 03:22:38;;;;;;;15.70;9.08;;;;;;;6.79;88.20;94875.33;1692050;84;21438;-50
2022/10/15 03:25:06;;;;;;;15.83;8.73;;;;;;;6.73;88.18;94880.33;1692087;84;20998;-52
2022/10/15 03:27:35;;;;;;;16.62;9.08;;;;;;;6.74;88.31;94879.13;1692082;84;21013;-52
2022/10/15 03:30:04;;;;;;;13.88;8.88;;;;;;;6.74;88.37;94877.77;1691877;84;20974;-51
2022/10/15 03:32:33;;;;;;;9.97;8.03;;;;;;;6.73;88.56;94884.42;1692173;84;21577;-51
2022/10/15 03:35:00;;;;;;;23.00;10.32;;;;;;;6.74;88.83;94875.79;1691815;83;21006;-51
2022/10/15 03:37:27;;;;;;;13.90;9.90;;;;;;;6.74;88.95;94878.52;1691963;84;21080;-52
2022/10/15 03:39:54;;;;;;;13.32;8.95;;;;;;;6.75;88.95;94876.58;1691822;84;21246;-53
2022/10/15 03:42:24;;;;;;;20.00;9.68;;;;;;;6.77;89.16;94876.34;1691720;84;20967;-52
2022/10/15 03:44:52;;;;;;;17.37;9.73;;;;;;;6.81;89.32;94877.63;1659325;84;20984;-52
2022/10/15 03:47:20;;;;;;;15.98;8.73;;;;;;;6.81;89.24;94876.25;1654075;86;21124;-50
2022/10/15 03:49:49;;;;;;;16.23;9.55;;;;;;;6.80;89.01;94882.91;1654083;86;20971;-52
2022/10/15 03:52:17;;;;;;;17.60;9.90;;;;;;;6.74;88.83;94879.13;1654056;86;21212;-52
2022/10/15 03:54:45;;;;;;;21.55;9.85;;;;;;;6.67;88.84;94884.13;1654042;86;21018;-52
2022/10/15 03:57:13;;;;;;;16.07;9.73;;;;;;;6.64;88.72;94887.70;1653999;86;21050;-52
2022/10/15 03:59:42;;;;;;;14.95;9.73;;;;;;;6.58;88.50;94885.87;1654695;84;21189;-51
2022/10/15 04:02:10;;;;;;;18.07;11.18;;;;;;;6.51;88.52;94883.27;1654308;86;21485;-51
2022/10/15 04:04:37;;;;;;;12.47;9.78;;;;;;;6.44;88.24;94880.06;1654013;86;21140;-53
2022/10/15 04:07:05;;;;;;;16.48;10.03;;;;;;;6.38;88.31;94880.38;1653996;86;21030;-52
2022/10/15 04:09:32;;;;;;;25.10;9.93;;;;;;;6.37;88.47;94882.15;1654177;86;21027;-53
2022/10/15 04:12:19;;;;;;;15.30;9.30;;;;;;;6.38;88.45;94883.11;1654464;86;21027;-51
2022/10/15 04:14:47;;;;;;;12.25;8.48;;;;;;;6.40;88.58;94878.00;1654098;85;21035;-55
2022/10/15 04:17:15;;;;;;;11.25;8.63;;;;;;;6.40;88.65;94879.95;1654052;86;21250;-51
2022/10/15 04:19:43;;;;;;;11.55;9.18;;;;;;;6.37;88.57;94882.15;1691864;84;21070;-52
2022/10/15 04:22:10;;;;;;;10.95;8.65;;;;;;;6.32;88.79;94879.29;1654167;86;21056;-51
2022/10/15 04:24:41;;;;;;;13.20;8.98;;;;;;;6.39;88.99;94882.50;1655750;84;21047;-50
2022/10/15 04:27:11;;;;;;;13.70;9.88;;;;;;;6.43;88.79;94877.16;1692596;83;21486;-52
2022/10/15 04:29:39;;;;;;;17.32;12.00;;;;;;;6.46;88.50;94882.36;1654053;86;21148;-51
2022/10/15 04:32:14;;;;;;;18.15;12.85;;;;;;;6.43;88.24;94879.11;1653744;85;21019;-53
2022/10/15 04:34:42;;;;;;;31.82;12.18;;;;;;;6.40;88.27;94877.21;1654106;86;21026;-52
2022/10/15 04:37:09;;;;;;;25.05;13.03;;;;;;;6.39;88.40;94880.55;1654147;86;20972;-52
2022/10/15 04:39:37;;;;;;;21.85;13.22;;;;;;;6.44;88.24;94882.80;1654217;86;21034;-52
2022/10/15 04:42:04;;;;;;;14.05;11.88;;;;;;;6.49;88.22;94883.67;1653967;86;21247;-51
2022/10/15 04:44:33;;;;;;;21.82;12.40;;;;;;;6.52;88.12;94885.57;1653899;85;21015;-52
2022/10/15 04:47:00;;;;;;;24.37;13.20;;;;;;;6.50;88.12;94891.30;1654147;86;20992;-52
2022/10/15 04:49:29;;;;;;;20.20;13.00;;;;;;;6.45;88.30;94889.80;1653817;85;21023;-54
2022/10/15 04:51:56;;;;;;;27.35;12.05;;;;;;;6.51;88.77;94896.94;1654131;86;21010;-57
2022/10/15 04:54:31;;;;;;;25.27;12.13;;;;;;;6.57;88.73;94893.89;1653989;85;21467;-52
2022/10/15 04:57:05;;;;;;;22.52;12.20;;;;;;;6.63;88.75;94894.95;1646598;86;21038;-52
2022/10/15 04:59:32;;;;;;;21.95;11.93;;;;;;;6.65;88.60;94902.13;1654138;86;21026;-52
2022/10/15 05:02:16;;;;;;;24.90;11.90;;;;;;;6.67;88.78;94899.78;1653558;85;21490;-52
2022/10/15 05:04:44;;;;;;;22.22;12.15;;;;;;;6.73;89.17;94901.59;1654205;86;21554;-54
2022/10/15 05:07:10;;;;;;;18.95;11.18;;;;;;;6.79;88.84;94903.25;1654075;85;21250;-53
2022/10/15 05:09:38;;;;;;;23.32;10.63;;;;;;;6.83;88.80;94903.36;1653956;86;20974;-53
2022/10/15 05:12:06;;;;;;;27.45;12.45;;;;;;;6.93;88.75;94908.45;1654104;86;20998;-53
2022/10/15 05:14:34;;;;;;;29.77;11.08;;;;;;;6.98;88.69;94901.13;1654107;86;21037;-53
2022/10/15 05:17:03;;;;;;;25.92;10.40;;;;;;;6.99;88.51;94910.88;1654027;85;21073;-53
2022/10/15 05:19:32;;;;;;;20.37;9.45;;;;;;;6.99;88.52;94905.40;1653974;85;21089;-53
2022/10/15 05:21:59;;;;;;;22.73;10.08;;;;;;;6.99;88.50;94906.19;1654044;86;21022;-53
2022/10/15 05:24:28;;;;;;;21.57;10.63;;;;;;;7.03;88.72;94915.70;1654071;86;21096;-52
2022/10/15 05:27:15;;;;;;;21.70;10.28;;;;;;;7.14;88.74;94916.42;1595639;86;21027;-52
2022/10/15 05:29:42;;;;;;;27.62;10.55;;;;;;;7.29;88.63;94916.32;1646542;86;21389;-52
2022/10/15 05:32:10;;;;;;;39.80;13.85;;;;;;;7.44;88.40;94912.11;1654024;85;21160;-52
2022/10/15 05:34:38;;;;;;;17.45;10.65;;;;;;;7.51;87.78;94913.31;1624741;86;20995;-54
2022/10/15 05:37:07;;;;;;;30.60;11.48;;;;;;;7.57;87.37;94920.44;1654087;85;21479;-53
2022/10/15 05:39:34;;;;;;;41.00;13.95;;;;;;;7.55;86.87;94922.83;1654122;86;21483;-52
2022/10/15 05:42:01;;;;;;;33.75;13.00;;;;;;;7.55;86.78;94919.48;1624542;86;21078;-51
2022/10/15 05:44:30;;;;;;;30.88;13.45;;;;;;;7.56;86.40;94916.91;1668273;83;21184;-53
2022/10/15 05:46:59;;;;;;;35.80;14.05;;;;;;;7.54;86.05;94916.57;1689591;85;20955;-53
2022/10/15 05:49:27;;;;;;;21.57;13.28;;;;;;;7.51;85.81;94918.79;1689437;85;21034;-52
2022/10/15 05:51:56;;;;;;;33.92;13.05;;;;;;;7.49;85.64;94924.53;1671347;85;21014;-53
2022/10/15 05:54:24;;;;;;;30.20;12.33;;;;;;;7.44;85.56;94927.16;1687645;84;21068;-52
2022/10/15 05:56:51;;;;;;;50.35;15.15;;;;;;;7.41;85.48;94928.01;1653069;85;21251;-53
2022/10/15 05:59:18;;;;;;;35.75;13.30;;;;;;;7.45;85.91;94925.97;1667666;86;21129;-53
2022/10/15 06:01:45;;;;;;;28.07;12.80;;;;;;;7.51;85.83;94929.73;1651016;86;21070;-53
2022/10/15 06:04:12;;;;;;;32.03;14.00;;;;;;;7.53;85.62;94933.44;1668571;86;20998;-53
2022/10/15 06:06:40;;;;;;;12.28;8.60;;;;;;;7.50;86.02;94935.04;1668690;86;20983;-57
2022/10/15 06:09:07;;;;;;;13.80;9.13;;;;;;;7.56;86.15;94938.06;1697333;84;21160;-54
2022/10/15 06:11:35;;;;;;;11.73;7.87;;;;;;;7.57;86.06;94936.28;1668467;86;21098;-50
2022/10/15 06:14:04;;;;;;;17.20;9.10;;;;;;;7.60;86.22;94938.75;1668449;86;21086;-52
2022/10/15 06:16:32;;;;;;;14.93;8.78;;;;;;;7.61;86.17;94932.87;1668864;86;20999;-53
2022/10/15 06:18:59;;;;;;;12.58;8.73;;;;;;;7.62;86.17;94933.03;1651376;86;21008;-52
2022/10/15 06:21:27;;;;;;;14.85;7.87;;;;;;;7.64;86.30;94938.86;1668619;86;21031;-54
2022/10/15 06:23:54;;;;;;;18.50;6.95;;;;;;;7.72;86.46;94940.85;1668496;86;21074;-51
2022/10/15 06:26:21;;;;;;;9.38;6.60;;;;;;;7.83;86.30;94944.91;1668467;86;20983;-53
2022/10/15 06:28:49;;;;;;;10.18;7.90;;;;;;;7.91;86.34;94944.91;1629751;86;20991;-52
2022/10/15 06:31:16;;;;;;;11.40;7.78;;;;;;;8.00;85.78;94944.33;1668654;86;21039;-53
2022/10/15 06:33:42;;;;;;;15.08;8.15;;;;;;;7.95;85.27;94945.63;1668577;86;21163;-54
2022/10/15 06:36:10;;;;;;;15.15;7.75;;;;;;;7.90;85.49;94946.10;1668441;86;20959;-53
2022/10/15 06:38:38;;;;;;;11.15;6.80;;;;;;;7.94;85.56;94951.52;1668523;86;20983;-52
2022/10/15 06:41:06;;;;;;;11.83;8.90;;;;;;;7.97;85.53;94950.08;1668688;86;21086;-55
2022/10/15 06:43:33;;;;;;;21.90;9.78;;;;;;;8.00;85.52;94947.84;1668506;86;21038;-54
2022/10/15 06:46:02;;;;;;;28.77;11.85;;;;;;;8.04;85.67;94950.52;1701637;83;21263;-55
2022/10/15 06:48:30;;;;;;;20.57;10.00;;;;;;;8.10;85.34;94951.55;1705031;84;21099;-53
2022/10/15 06:50:58;;;;;;;12.03;8.15;;;;;;;8.20;85.20;94957.39;1705084;84;20998;-52
2022/10/15 06:53:26;;;;;;;24.65;9.78;;;;;;;8.27;84.24;94947.05;1671302;85;21030;-53
2022/10/15 06:55:58;;;;;;;11.43;8.88;;;;;;;8.31;83.98;94954.61;1705168;84;21431;-52
2022/10/15 06:58:25;;;;;;;10.55;8.55;;;;;;;8.36;83.97;94951.34;1671154;86;21154;-54
2022/10/15 07:00:52;;;;;;;11.68;8.60;;;;;;;8.42;83.67;94949.63;1677212;84;20983;-51
2022/10/15 07:03:20;;;;;;;10.05;7.95;;;;;;;8.50;83.57;94956.50;1671120;84;21029;-53
2022/10/15 07:05:46;;;;;;;14.63;8.80;;;;;;;8.63;83.20;94955.97;1677144;84;21014;-54
2022/10/15 07:08:13;;;;;;;10.95;7.95;;;;;;;8.69;82.59;94951.53;1671166;85;21053;-53
2022/10/15 07:10:41;;;;;;;13.93;8.98;;;;;;;8.75;82.49;94957.23;1677562;84;21106;-55
2022/10/15 07:13:09;;;;;;;14.63;8.23;;;;;;;8.75;82.17;94953.91;1622946;86;20990;-53
2022/10/15 07:15:36;;;;;;;15.55;10.43;;;;;;;8.78;82.09;94954.42;1705173;84;21522;-52
2022/10/15 07:18:04;;;;;;;15.28;10.60;;;;;;;8.81;81.70;94960.41;1648616;86;21114;-53
2022/10/15 07:20:33;;;;;;;21.75;10.45;;;;;;;8.86;81.99;94955.02;1671086;84;21046;-52
2022/10/15 07:23:01;;;;;;;18.95;12.75;;;;;;;9.00;82.14;94956.78;1644013;86;21321;-51
2022/10/15 07:25:32;;;;;;;18.07;12.75;;;;;;;9.20;81.59;94951.94;1705318;84;20979;-53
2022/10/15 07:27:59;;;;;;;24.23;14.10;;;;;;;9.31;81.13;94949.69;1705089;84;20966;-54
2022/10/15 07:30:26;;;;;;;24.20;14.25;;;;;;;9.39;80.90;94947.69;1705131;84;21054;-56
2022/10/15 07:32:56;;;;;;;21.27;12.10;;;;;;;9.48;80.08;94940.97;1705083;84;21034;-55
2022/10/15 07:35:26;;;;;;;18.67;9.45;;;;;;;9.46;79.73;94943.36;1705434;84;21778;-53
2022/10/15 07:37:54;;;;;;;18.75;9.48;;;;;;;9.45;79.49;94942.44;1676652;84;20975;-54
2022/10/15 07:40:21;;;;;;;20.62;9.48;;;;;;;9.50;79.50;94941.89;1671246;86;21033;-54
2022/10/15 07:42:55;;;;;;;14.40;10.03;;;;;;;9.61;79.35;94939.63;1705055;84;21040;-55
2022/10/15 07:45:26;;;;;;;13.15;9.13;;;;;;;9.74;79.51;94934.91;1705147;83;21078;-54
2022/10/15 07:47:53;;;;;;;13.95;8.80;;;;;;;9.91;78.68;94928.91;1644082;86;21915;-54
2022/10/15 07:50:21;;;;;;;12.23;7.70;;;;;;;9.96;77.93;94931.73;1677616;84;20983;-55
2022/10/15 07:52:49;;;;;;;13.28;8.78;;;;;;;9.99;77.66;94929.47;1671121;84;21540;-54
2022/10/15 07:55:16;;;;;;;11.90;7.62;;;;;;;10.10;77.59;94932.68;1705216;84;21526;-53
2022/10/15 07:57:43;;;;;;;10.82;7.33;;;;;;;10.20;76.81;94931.59;1671181;85;20993;-55
2022/10/15 08:00:11;;;;;;;13.05;8.58;;;;;;;10.24;76.59;94926.75;1705041;84;21118;-54
2022/10/15 08:02:42;;;;;;;9.38;6.85;;;;;;;10.27;76.83;94931.36;1671191;86;20970;-54
2022/10/15 08:05:10;;;;;;;13.30;8.43;;;;;;;10.36;76.62;94932.86;1705080;84;21079;-53
2022/10/15 08:07:40;;;;;;;8.38;7.47;;;;;;;10.38;76.44;94932.56;1671002;84;21077;-55
2022/10/15 08:10:09;;;;;;;14.70;9.45;;;;;;;10.41;76.22;94929.55;1704983;84;21505;-53
2022/10/15 08:12:38;;;;;;;16.87;8.93;;;;;;;10.40;76.27;94925.27;1670955;84;21151;-53
2022/10/15 08:15:09;;;;;;;14.13;8.83;;;;;;;10.44;76.38;94929.45;1644464;86;21033;-52
2022/10/15 08:17:36;;;;;;;10.50;8.10;;;;;;;10.57;76.31;94923.92;1705014;84;21487;-53
2022/10/15 08:20:05;;;;;;;16.23;8.83;;;;;;;10.69;76.06;94917.64;1665312;85;20985;-54
2022/10/15 08:22:33;;;;;;;18.10;8.00;;;;;;;10.86;76.01;94921.17;1705086;84;20966;-54
2022/10/15 08:25:00;;;;;;;12.10;8.20;;;;;;;11.04;75.63;94925.47;1665235;85;21280;-54
2022/10/15 08:27:27;;;;;;;13.68;8.18;;;;;;;11.11;74.89;94917.73;1704980;84;21007;-54
2022/10/15 08:29:56;;;;;;;12.53;8.28;;;;;;;11.19;74.50;94914.88;1671030;86;21052;-54
2022/10/15 08:32:23;;;;;;;15.65;8.08;;;;;;;11.26;74.23;94913.28;1705081;84;20986;-53
2022/10/15 08:34:50;;;;;;;10.88;8.03;;;;;;;11.40;73.79;94914.16;1671110;86;21013;-54
2022/10/15 08:37:18;;;;;;;10.98;8.38;;;;;;;11.56;73.23;94912.59;1655118;84;21180;-55
2022/10/15 08:39:45;;;;;;;14.68;8.05;;;;;;;11.74;72.85;94915.47;1670962;84;21158;-54
2022/10/15 08:42:32;;;;;;;21.95;9.18;;;;;;;11.90;72.39;94909.75;1655033;84;21451;-52
2022/10/15 08:45:06;;;;;;;19.70;9.48;;;;;;;12.10;71.96;94913.54;1669568;84;21474;-54
2022/10/15 08:47:54;;;;;;;14.15;8.95;;;;;;;12.25;71.32;94909.77;1700747;83;21031;-53
2022/10/15 08:50:48;;;;;;;21.42;9.60;;;;;;;12.41;70.71;94912.28;1701184;83;21862;-54
2022/10/15 08:53:18;;;;;;;16.55;8.93;;;;;;;12.58;70.07;94906.08;1700759;83;21075;-54
2022/10/15 08:55:49;;;;;;;13.78;9.53;;;;;;;12.74;69.34;94904.41;1701029;83;21030;-54
2022/10/15 08:58:39;;;;;;;16.20;9.98;;;;;;;12.88;69.30;94904.45;1700637;84;21070;-53
2022/10/15 09:01:22;;;;;;;13.83;8.20;;;;;;;13.14;69.00;94901.59;1700757;83;21082;-54
2022/10/15 09:04:26;;;;;;;14.93;9.18;;;;;;;13.48;68.06;94898.52;1701071;83;21301;-52
2022/10/15 09:06:58;;;;;;;19.27;8.15;;;;;;;13.71;67.57;94894.52;1665088;83;21233;-53
2022/10/15 09:09:37;;;;;;;14.43;8.50;;;;;;;13.93;67.28;94895.67;1675754;84;23343;-54
2022/10/15 09:12:35;;;;;;;12.30;9.10;;;;;;;14.17;67.71;94891.80;1700781;84;21593;-54
2022/10/15 09:15:04;;;;;;;20.45;10.93;;;;;;;14.56;66.81;94890.70;1700731;83;20966;-54
2022/10/15 09:17:35;;;;;;;16.65;8.63;;;;;;;15.03;65.25;94883.20;1700758;83;20960;-54
2022/10/15 09:20:05;;;;;;;12.88;8.30;;;;;;;15.35;63.73;94875.45;1700830;84;21011;-55
2022/10/15 09:22:33;;;;;;;14.20;8.00;;;;;;;15.55;62.99;94870.03;1700866;84;20950;-54
2022/10/15 09:25:16;;;;;;;16.90;8.65;;;;;;;15.87;62.99;94874.67;1700743;84;20982;-58
2022/10/15 09:27:44;;;;;;;32.03;9.05;;;;;;;16.28;62.26;94866.66;1701052;84;21070;-55
2022/10/15 09:30:28;;;;;;;13.40;8.63;;;;;;;16.66;60.05;94875.62;1675228;84;22007;-54
2022/10/15 09:33:31;;;;;;;12.55;8.38;;;;;;;16.92;59.15;94870.18;1700909;84;21034;-56
2022/10/15 09:36:27;;;;;;;23.67;7.75;;;;;;;17.30;57.95;94874.09;1701073;83;21550;-55
2022/10/15 09:39:11;;;;;;;10.65;8.08;;;;;;;17.82;56.63;94874.34;1626547;88;21216;-55
2022/10/15 09:42:19;;;;;;;12.33;7.35;;;;;;;18.21;55.18;94872.81;1626520;88;21095;-55
2022/10/15 09:44:46;;;;;;;11.40;7.25;;;;;;;18.39;54.70;94871.72;1682159;84;21331;-54
2022/10/15 09:47:27;;;;;;;13.08;7.03;;;;;;;18.58;54.25;94866.69;1691502;84;21011;-57
2022/10/15 09:49:55;;;;;;;9.15;6.70;;;;;;;19.13;54.53;94864.25;1680988;85;21488;-54
2022/10/15 09:52:54;;;;;;;8.53;5.67;;;;;;;19.93;51.94;94863.55;1691561;84;20963;-55
2022/10/15 09:56:01;;;;;;;10.75;6.20;;;;;;;20.57;49.15;94859.20;1691866;84;21435;-54
2022/10/15 09:58:39;;;;;;;9.15;6.12;;;;;;;21.05;46.65;94855.45;1691555;84;21376;-55
2022/10/15 10:01:07;;;;;;;8.15;5.70;;;;;;;20.92;46.11;94861.59;1659661;85;21416;-55
2022/10/15 10:03:35;;;;;;;10.05;6.12;;;;;;;20.82;45.33;94851.16;1691758;84;21203;-54
2022/10/15 10:06:07;;;;;;;12.65;6.22;;;;;;;20.73;46.24;94853.58;1675091;84;21108;-55
2022/10/15 10:08:56;;;;;;;15.88;6.67;;;;;;;20.65;45.90;94848.39;1691930;84;21194;-55
2022/10/15 10:11:24;;;;;;;21.30;8.10;;;;;;;20.30;46.66;94849.54;1691550;84;21323;-55
2022/10/15 10:13:59;;;;;;;25.72;8.03;;;;;;;19.87;47.45;94855.80;1691954;84;20940;-55
2022/10/15 10:16:26;;;;;;;24.20;8.30;;;;;;;19.47;48.42;94852.00;1691816;84;21455;-55
2022/10/15 10:19:12;;;;;;;42.50;11.83;;;;;;;19.15;50.11;94854.00;1691533;84;20991;-54
2022/10/15 10:21:41;;;;;;;31.90;9.43;;;;;;;18.79;51.33;94855.55;1691457;84;21578;-54
2022/10/15 10:24:29;;;;;;;28.77;10.50;;;;;;;18.38;52.46;94855.64;1675844;84;21148;-56
2022/10/15 10:26:56;;;;;;;29.63;9.90;;;;;;;18.07;53.57;94854.84;1691595;84;21015;-54
2022/10/15 10:29:23;;;;;;;37.70;11.08;;;;;;;17.78;54.42;94852.89;1691582;84;20955;-54
2022/10/15 10:31:51;;;;;;;36.33;10.70;;;;;;;17.54;55.00;94856.56;1691586;83;21059;-54
2022/10/15 10:34:31;;;;;;;25.85;8.30;;;;;;;17.85;55.72;94860.82;1677220;84;20952;-55
2022/10/15 10:37:00;;;;;;;25.62;9.13;;;;;;;18.36;54.65;94853.21;1691844;84;21221;-54
2022/10/15 10:39:30;;;;;;;28.15;10.10;;;;;;;18.43;53.84;94853.52;1675910;84;21061;-53
2022/10/15 10:41:59;;;;;;;28.05;8.73;;;;;;;18.23;53.76;94852.20;1691511;84;21128;-55
2022/10/15 10:44:33;;;;;;;35.50;10.08;;;;;;;17.98;54.12;94854.25;1691482;84;21027;-55
2022/10/15 10:47:11;;;;;;;37.03;11.28;;;;;;;17.70;54.63;94853.98;1691437;84;20979;-54
2022/10/15 10:49:43;;;;;;;29.10;13.03;;;;;;;17.49;55.36;94850.32;1691564;84;22154;-55
2022/10/15 10:52:29;;;;;;;25.12;12.82;;;;;;;17.32;55.65;94852.11;1675646;84;20971;-54
2022/10/15 10:55:19;;;;;;;29.85;11.85;;;;;;;17.19;56.02;94856.64;1691493;84;21015;-53
2022/10/15 10:57:51;;;;;;;31.12;10.72;;;;;;;17.07;56.41;94852.83;1691481;84;21018;-53
2022/10/15 11:00:44;;;;;;;17.52;9.33;;;;;;;16.92;56.24;94854.89;1691486;84;21562;-54
2022/10/15 11:03:38;;;;;;;28.45;9.58;;;;;;;16.81;56.31;94851.95;1691650;84;22025;-53
2022/10/15 11:06:28;;;;;;;28.50;11.12;;;;;;;16.75;56.68;94848.34;1691439;84;21059;-54
2022/10/15 11:09:15;;;;;;;50.52;13.38;;;;;;;16.76;57.16;94838.12;1691709;84;21537;-54
2022/10/15 11:12:20;;;;;;;35.80;10.63;;;;;;;16.78;57.55;94843.20;1667530;84;21160;-52
2022/10/15 11:15:36;;;;;;;27.22;9.90;;;;;;;16.87;57.36;94841.70;1691487;84;20960;-54
2022/10/15 11:18:28;;;;;;;27.10;8.18;;;;;;;16.98;56.95;94841.83;1691563;83;21845;-53
2022/10/15 11:21:16;;;;;;;31.37;9.98;;;;;;;17.10;56.40;94840.08;1691580;84;20995;-54
2022/10/15 11:24:15;;;;;;;21.73;10.05;;;;;;;17.16;55.80;94829.81;1691463;84;21027;-55
2022/10/15 11:27:26;;;;;;;17.57;8.00;;;;;;;17.31;55.37;94835.29;1683652;83;20952;-53
2022/10/15 11:30:11;;;;;;;13.45;7.85;;;;;;;17.47;54.78;94831.97;1691830;84;21019;-52
2022/10/15 11:33:03;;;;;;;24.65;10.25;;;;;;;17.64;54.37;94829.48;1691757;84;21245;-54
2022/10/15 11:36:00;;;;;;;16.37;8.38;;;;;;;18.51;54.04;94831.55;1691024;84;21088;-54
2022/10/15 11:38:39;;;;;;;26.80;10.88;;;;;;;19.73;51.64;94821.13;1691162;84;21538;-55
2022/10/15 11:41:48;;;;;;;205.72;134.03;;;;;;;20.80;49.98;94820.14;1691362;84;21039;-55
2022/10/15 11:44:29;;;;;;;39.48;23.85;;;;;;;21.43;47.49;94809.78;1566077;90;21078;-56
2022/10/15 11:47:15;;;;;;;12.23;8.20;;;;;;;22.12;43.73;94808.52;1672542;83;21851;-54
2022/10/15 11:50:08;;;;;;;15.30;9.58;;;;;;;22.83;40.41;94808.58;1696677;84;21100;-55
2022/10/15 11:52:57;;;;;;;16.80;5.50;;;;;;;23.26;38.53;94798.20;1621069;88;21477;-53
2022/10/15 11:55:36;;;;;;;19.80;5.50;;;;;;;23.52;35.53;94794.80;1695834;84;21085;-52
2022/10/15 11:58:12;;;;;;;6.78;3.95;;;;;;;23.89;35.90;94801.86;1671185;84;21527;-54